Time;durP1;ratioP1;P1;durP2;ratioP2;P2;SDS_P1;SDS_P2;PMS_P1;PMS_P2;Temp;Humidity;BMP_temperature;BMP_pressure;BME280_temperature;BME280_humidity;BME280_pressure;Samples;Min_cycle;Max_cycle;Signal;HPM_P1;HPM_P2
2022/04/23 00:01:42;;;;;;;41.33;24.08;;;;;;;15.67;43.93;98633.78;4971223;28;20129;-80
2022/04/23 00:04:10;;;;;;;44.60;24.77;;;;;;;15.51;44.24;98640.28;4956229;28;20132;-80
2022/04/23 00:06:37;;;;;;;38.85;23.23;;;;;;;15.51;44.62;98637.59;4988402;28;20140;-80
2022/04/23 00:09:04;;;;;;;40.10;23.77;;;;;;;15.58;44.27;98636.63;4986969;28;20107;-80
2022/04/23 00:11:32;;;;;;;43.22;23.60;;;;;;;15.62;44.37;98637.91;4988299;28;20532;-80
2022/04/23 00:14:00;;;;;;;42.38;23.83;;;;;;;15.69;43.99;98627.22;4988879;28;20041;-80
2022/04/23 00:16:27;;;;;;;41.08;23.67;;;;;;;15.69;44.00;98635.25;4990048;28;20050;-80
2022/04/23 00:18:54;;;;;;;44.97;24.73;;;;;;;15.66;43.92;98627.59;4973104;28;20405;-80
2022/04/23 00:21:21;;;;;;;40.78;24.90;;;;;;;15.51;44.31;98622.38;4988254;28;20050;-80
2022/04/23 00:23:48;;;;;;;40.83;24.60;;;;;;;15.51;44.39;98624.22;4974223;28;20054;-80
2022/04/23 00:26:17;;;;;;;41.38;24.63;;;;;;;15.54;44.13;98626.50;4971629;28;20105;-80
2022/04/23 00:28:43;;;;;;;45.50;23.85;;;;;;;15.30;44.87;98628.63;4989937;28;20371;-80
2022/04/23 00:31:10;;;;;;;38.92;23.60;;;;;;;15.22;45.07;98625.28;4991020;28;20050;-80
2022/04/23 00:33:38;;;;;;;37.78;23.77;;;;;;;15.35;44.98;98623.53;4974490;28;20429;-80
2022/04/23 00:36:05;;;;;;;42.20;24.02;;;;;;;15.43;44.98;98617.19;4967637;28;20517;-80
2022/04/23 00:38:36;;;;;;;37.60;22.13;;;;;;;15.45;44.59;98617.81;4954920;28;20046;-80
2022/04/23 00:41:02;;;;;;;40.03;24.88;;;;;;;15.51;44.88;98621.56;4988293;28;20104;-80
2022/04/23 00:43:33;;;;;;;40.28;24.38;;;;;;;15.34;44.82;98621.03;4970858;28;20493;-79
2022/04/23 00:46:02;;;;;;;41.05;23.05;;;;;;;15.37;44.76;98624.16;4975164;28;20053;-80
2022/04/23 00:48:29;;;;;;;41.42;23.67;;;;;;;15.36;45.01;98627.03;4986658;28;21073;-80
2022/04/23 00:50:58;;;;;;;40.28;23.65;;;;;;;15.34;45.18;98623.72;4991575;28;20084;-80
2022/04/23 00:53:25;;;;;;;39.55;22.65;;;;;;;15.38;45.16;98620.44;4973039;28;20046;-80
2022/04/23 00:55:52;;;;;;;46.58;24.90;;;;;;;15.37;45.08;98632.19;4975194;28;20056;-80
2022/04/23 00:58:19;;;;;;;39.50;23.67;;;;;;;15.32;45.19;98626.59;4990986;28;20401;-80
2022/04/23 01:00:47;;;;;;;41.83;23.95;;;;;;;15.22;45.39;98626.13;4971528;28;20125;-80
2022/04/23 01:03:14;;;;;;;41.17;25.25;;;;;;;15.22;45.38;98630.66;4985079;28;20112;-81
2022/04/23 01:05:44;;;;;;;41.20;25.40;;;;;;;15.25;45.50;98631.06;4973781;28;20512;-80
2022/04/23 01:08:17;;;;;;;36.47;23.55;;;;;;;15.07;45.82;98638.75;4969318;28;20129;-80
2022/04/23 01:10:44;;;;;;;38.90;24.17;;;;;;;15.14;45.45;98636.97;4952955;28;23666;-80
2022/04/23 01:13:14;;;;;;;34.65;22.58;;;;;;;15.12;45.67;98636.34;4987243;28;20452;-80
2022/04/23 01:15:58;;;;;;;39.55;24.58;;;;;;;14.97;46.29;98628.41;4985762;28;20046;-80
2022/04/23 01:18:25;;;;;;;39.72;23.92;;;;;;;15.12;45.83;98644.34;4950456;28;21471;-80
2022/04/23 01:20:56;;;;;;;40.58;23.17;;;;;;;15.11;46.08;98646.19;4986867;28;20050;-80
2022/04/23 01:23:23;;;;;;;41.08;24.52;;;;;;;15.14;45.79;98650.34;4993409;28;20039;-80
2022/04/23 01:25:52;;;;;;;43.35;24.00;;;;;;;15.09;46.03;98647.41;4992788;28;20053;-80
2022/04/23 01:28:21;;;;;;;42.17;25.67;;;;;;;14.88;46.59;98641.09;4989922;28;20050;-80
2022/04/23 01:30:49;;;;;;;40.08;23.80;;;;;;;14.93;46.49;98644.00;4958627;28;20129;-80
2022/04/23 01:33:16;;;;;;;38.70;23.13;;;;;;;14.84;46.80;98642.47;4990272;28;20042;-80
2022/04/23 01:35:43;;;;;;;43.60;24.58;;;;;;;14.95;46.64;98646.47;4969706;28;20050;-80
2022/04/23 01:38:10;;;;;;;41.90;24.83;;;;;;;14.98;46.51;98648.75;4989354;28;20134;-80
2022/04/23 01:40:37;;;;;;;35.05;22.50;;;;;;;14.97;46.53;98644.44;4988149;28;20398;-80
2022/04/23 01:43:04;;;;;;;43.30;23.73;;;;;;;14.85;46.93;98638.78;4984717;28;20058;-80
2022/04/23 01:45:31;;;;;;;42.00;24.38;;;;;;;14.91;46.46;98643.38;4952102;28;20506;-80
2022/04/23 01:48:05;;;;;;;37.88;22.98;;;;;;;14.70;47.16;98640.69;4984188;28;20046;-80
2022/04/23 01:50:32;;;;;;;40.55;23.35;;;;;;;14.83;46.87;98638.13;4984526;28;20053;-80
2022/04/23 01:52:59;;;;;;;41.35;24.55;;;;;;;14.66;47.30;98628.75;4982850;28;20047;-79
2022/04/23 01:55:26;;;;;;;39.83;24.80;;;;;;;14.71;47.30;98627.16;4966085;28;20048;-80
2022/04/23 01:57:52;;;;;;;40.90;23.45;;;;;;;14.77;47.07;98637.06;4985693;28;20042;-80
2022/04/23 02:00:19;;;;;;;40.88;25.02;;;;;;;14.71;47.50;98634.34;4989175;28;20042;-80
2022/04/23 02:02:47;;;;;;;40.97;24.17;;;;;;;14.68;47.48;98635.56;4982517;28;20057;-80
2022/04/23 02:05:14;;;;;;;42.47;23.38;;;;;;;14.64;47.59;98639.63;4970532;28;20113;-80
2022/04/23 02:07:45;;;;;;;40.33;24.25;;;;;;;14.67;47.88;98641.09;4989121;28;20042;-80
2022/04/23 02:10:13;;;;;;;38.92;23.80;;;;;;;14.67;47.68;98636.56;4968843;28;20051;-80
2022/04/23 02:12:41;;;;;;;47.67;25.73;;;;;;;14.72;47.50;98644.00;4969189;28;20057;-80
2022/04/23 02:15:12;;;;;;;37.50;23.10;;;;;;;14.56;48.06;98636.25;4986716;28;20109;-79
2022/04/23 02:17:41;;;;;;;43.80;25.77;;;;;;;14.66;47.42;98639.44;4971235;28;20044;-80
2022/04/23 02:20:09;;;;;;;38.10;21.52;;;;;;;14.59;47.95;98631.34;4969159;28;20057;-80
2022/04/23 02:22:36;;;;;;;42.17;24.30;;;;;;;14.62;47.99;98635.47;4985135;28;20064;-80
2022/04/23 02:25:07;;;;;;;39.95;24.48;;;;;;;14.56;48.11;98631.75;4970517;28;21530;-80
2022/04/23 02:27:48;;;;;;;44.55;24.80;;;;;;;14.38;48.23;98639.34;4951614;28;20057;-80
2022/04/23 02:30:16;;;;;;;43.95;24.25;;;;;;;14.48;48.08;98635.34;4958622;28;20074;-80
2022/04/23 02:32:44;;;;;;;44.53;25.58;;;;;;;14.24;48.97;98633.84;4989416;28;20162;-80
2022/04/23 02:35:14;;;;;;;42.30;24.73;;;;;;;14.28;48.84;98632.44;4989630;28;20042;-80
2022/04/23 02:37:42;;;;;;;44.10;25.08;;;;;;;14.34;48.73;98634.34;4984822;28;20038;-80
2022/04/23 02:40:09;;;;;;;48.65;23.60;;;;;;;14.25;48.74;98629.34;4989735;28;20476;-80
2022/04/23 02:42:37;;;;;;;40.45;23.45;;;;;;;14.34;48.76;98633.53;4990253;28;20046;-80
2022/04/23 02:45:08;;;;;;;40.08;24.08;;;;;;;14.29;48.88;98630.59;4988127;28;20096;-80
2022/04/23 02:47:46;;;;;;;43.35;24.40;;;;;;;14.23;48.98;98640.19;4987980;28;20072;-80
2022/04/23 02:50:14;;;;;;;37.22;23.38;;;;;;;14.28;48.67;98635.13;4967781;28;20042;-80
2022/04/23 02:52:42;;;;;;;40.03;23.50;;;;;;;14.18;49.14;98629.25;4953969;28;20046;-79
2022/04/23 02:55:11;;;;;;;38.60;23.45;;;;;;;14.24;49.21;98625.81;4985196;28;20039;-80
2022/04/23 02:57:39;;;;;;;41.28;25.85;;;;;;;13.98;49.98;98646.88;4987834;28;20062;-80
2022/04/23 03:00:07;;;;;;;41.30;23.48;;;;;;;14.01;49.54;98639.31;4984579;28;20498;-80
2022/04/23 03:02:36;;;;;;;38.78;22.77;;;;;;;14.10;49.32;98638.22;4982878;28;20130;-79
2022/04/23 03:05:09;;;;;;;39.95;23.58;;;;;;;14.05;49.70;98639.78;4987372;28;20125;-80
2022/04/23 03:07:39;;;;;;;39.35;23.13;;;;;;;13.95;49.97;98636.59;4973462;28;20047;-80
2022/04/23 03:10:08;;;;;;;38.97;22.92;;;;;;;14.01;49.83;98638.50;4983939;28;20120;-80
2022/04/23 03:12:38;;;;;;;41.10;24.67;;;;;;;13.97;50.03;98638.06;4990190;28;20050;-80
2022/04/23 03:15:07;;;;;;;38.60;22.58;;;;;;;14.00;49.87;98643.00;4992969;28;20096;-80
2022/04/23 03:17:34;;;;;;;42.00;23.27;;;;;;;13.99;49.91;98652.06;4994728;28;20042;-79
2022/04/23 03:20:01;;;;;;;39.55;22.35;;;;;;;13.94;49.95;98646.41;4975165;28;20093;-80
2022/04/23 03:22:28;;;;;;;37.90;21.77;;;;;;;13.76;50.64;98644.13;4988036;28;20124;-80
2022/04/23 03:24:55;;;;;;;40.20;22.10;;;;;;;13.74;50.59;98656.00;4975969;28;20050;-80
2022/04/23 03:27:22;;;;;;;37.70;21.88;;;;;;;13.80;50.54;98652.63;4990273;28;20056;-80
2022/04/23 03:29:49;;;;;;;37.20;21.90;;;;;;;13.80;50.25;98642.75;5005547;28;20050;-80
2022/04/23 03:32:15;;;;;;;36.63;22.17;;;;;;;13.81;50.67;98649.75;5002568;28;20132;-80
2022/04/23 03:34:42;;;;;;;38.40;22.95;;;;;;;13.81;50.44;98654.25;4987360;28;20053;-80
2022/04/23 03:37:11;;;;;;;34.65;21.85;;;;;;;13.74;50.55;98653.34;4988257;28;20401;-80
2022/04/23 03:39:38;;;;;;;39.53;22.02;;;;;;;13.79;50.64;98662.47;4968161;28;20043;-80
2022/04/23 03:42:05;;;;;;;38.22;22.63;;;;;;;13.83;50.58;98662.91;4970722;28;20047;-80
2022/04/23 03:44:32;;;;;;;32.35;21.10;;;;;;;13.83;50.53;98662.91;4976900;28;20498;-80
2022/04/23 03:47:01;;;;;;;33.88;20.63;;;;;;;13.82;50.61;98653.25;4986188;28;20046;-80
2022/04/23 03:49:29;;;;;;;34.25;20.58;;;;;;;13.83;50.30;98658.41;4983579;28;20053;-80
2022/04/23 03:51:56;;;;;;;30.95;18.98;;;;;;;13.78;50.78;98646.63;5003552;28;20091;-80
2022/04/23 03:54:23;;;;;;;33.13;20.83;;;;;;;13.38;52.11;98644.25;5005114;28;20494;-80
2022/04/23 03:56:50;;;;;;;31.58;19.98;;;;;;;13.61;51.21;98652.16;4990492;28;20046;-80
2022/04/23 03:59:20;;;;;;;31.73;19.77;;;;;;;13.68;51.08;98647.72;4987507;28;20054;-80
2022/04/23 04:01:53;;;;;;;32.60;19.83;;;;;;;13.61;51.27;98649.50;4988854;28;20042;-80
2022/04/23 04:04:20;;;;;;;30.90;18.38;;;;;;;13.66;51.30;98652.44;4972480;28;20065;-80
2022/04/23 04:06:46;;;;;;;32.10;19.05;;;;;;;13.56;51.73;98643.91;4988988;28;20045;-80
2022/04/23 04:09:13;;;;;;;31.60;18.45;;;;;;;13.64;51.36;98649.13;4969840;28;20205;-80
2022/04/23 04:14:25;;;;;;;29.13;17.35;;;;;;;13.71;51.31;98645.72;5003257;28;20046;-80
2022/04/23 04:16:52;;;;;;;30.27;18.65;;;;;;;13.75;51.18;98647.00;4985287;28;20493;-80
2022/04/23 04:19:19;;;;;;;31.05;17.42;;;;;;;13.75;51.23;98649.69;4990334;28;20046;-80
2022/04/23 04:21:46;;;;;;;29.77;18.10;;;;;;;13.75;51.39;98655.84;4988768;28;20039;-80
2022/04/23 04:24:13;;;;;;;27.83;16.02;;;;;;;13.76;51.14;98644.13;4957574;28;20050;-80
2022/04/23 04:26:40;;;;;;;25.63;17.40;;;;;;;13.78;51.25;98647.44;4988768;28;20411;-80
2022/04/23 04:29:07;;;;;;;23.33;15.10;;;;;;;13.77;51.37;98645.81;4993353;28;20050;-80
2022/04/23 04:31:47;;;;;;;28.10;17.40;;;;;;;13.80;51.48;98642.75;4988774;28;20042;-80
2022/04/23 04:34:32;;;;;;;27.23;17.58;;;;;;;13.70;52.07;98633.41;4973131;28;20050;-80
2022/04/23 04:37:08;;;;;;;28.67;18.25;;;;;;;13.72;51.72;98637.53;4988006;28;20054;-80
2022/04/23 04:39:37;;;;;;;26.25;16.92;;;;;;;13.76;51.64;98629.97;4953788;28;20042;-80
2022/04/23 04:42:05;;;;;;;25.42;17.27;;;;;;;13.76;51.85;98635.31;4986835;28;20058;-80
2022/04/23 04:44:32;;;;;;;26.70;16.88;;;;;;;13.72;51.66;98626.03;4967127;28;20169;-80
2022/04/23 04:47:08;;;;;;;27.45;17.10;;;;;;;13.72;51.77;98626.84;4956097;28;20120;-80
2022/04/23 04:53:20;;;;;;;24.00;14.93;;;;;;;13.71;51.94;98627.84;4954328;28;20601;-80
2022/04/23 04:55:47;;;;;;;25.45;15.63;;;;;;;13.76;52.26;98632.63;4990560;28;20050;-80
2022/04/23 04:58:14;;;;;;;26.02;15.80;;;;;;;13.72;52.29;98634.03;4991138;28;20133;-80
2022/04/23 05:00:41;;;;;;;26.65;16.30;;;;;;;13.78;52.16;98634.09;4976904;28;20478;-81
2022/04/23 05:03:07;;;;;;;27.17;15.70;;;;;;;13.82;52.17;98632.75;4973796;28;20049;-80
2022/04/23 05:05:36;;;;;;;28.08;16.92;;;;;;;13.85;52.56;98635.03;4986663;28;20121;-80
2022/04/23 05:08:03;;;;;;;25.35;15.27;;;;;;;13.87;52.19;98626.84;4986822;28;20050;-81
2022/04/23 05:10:30;;;;;;;24.42;15.57;;;;;;;13.90;52.41;98626.47;4970710;28;20058;-81
2022/04/23 05:12:56;;;;;;;23.90;14.90;;;;;;;13.92;52.35;98632.44;4989177;28;20062;-80
2022/04/23 05:15:23;;;;;;;27.00;16.25;;;;;;;13.95;52.40;98629.41;4985343;28;20081;-80
2022/04/23 05:17:50;;;;;;;25.88;16.35;;;;;;;13.95;52.57;98634.75;4986728;28;20046;-80
2022/04/23 05:20:16;;;;;;;25.42;16.30;;;;;;;13.95;52.60;98641.94;4987213;28;20047;-80
2022/04/23 05:22:43;;;;;;;25.30;16.73;;;;;;;13.81;52.91;98644.41;4959923;28;20042;-80
2022/04/23 05:25:10;;;;;;;22.85;15.38;;;;;;;13.84;53.15;98649.41;4990098;28;20112;-80
2022/04/23 05:27:37;;;;;;;25.40;16.05;;;;;;;13.84;52.97;98649.41;4977422;28;20045;-80
2022/04/23 05:30:04;;;;;;;22.58;15.15;;;;;;;13.89;53.00;98655.00;4956176;28;20038;-80
2022/04/23 05:32:31;;;;;;;25.77;15.85;;;;;;;13.92;53.00;98650.28;4988915;28;20137;-80
2022/04/23 05:35:01;;;;;;;28.58;17.40;;;;;;;13.90;53.36;98653.16;4972758;28;20570;-80
2022/04/23 05:37:28;;;;;;;27.42;16.55;;;;;;;13.91;53.04;98657.47;4983170;28;20057;-81
2022/04/23 05:39:55;;;;;;;29.45;16.95;;;;;;;13.90;53.36;98651.31;4985446;28;20146;-81
2022/04/23 05:42:22;;;;;;;25.90;15.35;;;;;;;13.85;53.48;98644.88;4984124;28;20125;-80
2022/04/23 05:45:18;;;;;;;26.10;15.88;;;;;;;13.75;53.73;98661.16;4965094;28;20497;-81
2022/04/23 05:47:45;;;;;;;23.17;14.48;;;;;;;13.82;53.53;98655.94;4949188;28;20058;-80
2022/04/23 05:50:12;;;;;;;22.75;15.43;;;;;;;13.79;53.91;98661.63;4985223;28;20532;-80
2022/04/23 05:52:39;;;;;;;25.73;15.73;;;;;;;13.76;54.34;98662.00;4984913;28;20094;-80
2022/04/23 05:55:11;;;;;;;25.67;15.45;;;;;;;13.78;53.93;98660.78;4984209;28;20050;-81
2022/04/23 05:57:39;;;;;;;27.85;15.90;;;;;;;13.82;53.86;98666.59;4982590;28;20038;-80
2022/04/23 06:00:08;;;;;;;25.02;15.18;;;;;;;13.87;54.03;98664.22;4985527;28;20043;-80
2022/04/23 06:02:37;;;;;;;24.63;14.77;;;;;;;13.80;54.39;98671.28;5001712;28;20121;-81
2022/04/23 06:05:05;;;;;;;25.88;15.57;;;;;;;13.88;54.17;98666.66;4981297;28;20046;-80
2022/04/23 06:07:31;;;;;;;25.42;15.13;;;;;;;13.89;53.99;98665.69;4986537;28;20038;-80
2022/04/23 06:09:58;;;;;;;23.77;14.75;;;;;;;13.87;53.98;98666.88;4954807;28;20092;-80
2022/04/23 06:12:25;;;;;;;22.65;14.90;;;;;;;13.75;54.77;98671.03;4986993;28;20448;-80
2022/04/23 06:14:52;;;;;;;24.85;13.88;;;;;;;13.61;55.34;98676.19;4988603;28;20640;-80
2022/04/23 06:17:26;;;;;;;21.98;14.63;;;;;;;13.57;55.36;98668.72;4984957;28;20254;-80
2022/04/23 06:19:53;;;;;;;23.60;14.10;;;;;;;13.55;55.77;98673.41;4989816;28;20135;-80
2022/04/23 06:22:20;;;;;;;25.52;14.43;;;;;;;13.65;55.47;98677.44;4969257;28;20051;-80
2022/04/23 06:24:46;;;;;;;23.33;14.75;;;;;;;13.65;55.29;98668.63;4970424;28;20042;-80
2022/04/23 06:27:13;;;;;;;25.60;14.95;;;;;;;13.57;56.04;98674.88;4984364;28;20057;-80
2022/04/23 06:29:40;;;;;;;21.55;13.60;;;;;;;13.53;55.78;98676.25;4985002;28;20056;-81
2022/04/23 06:32:09;;;;;;;22.23;14.05;;;;;;;13.63;55.46;98682.13;4982761;28;20398;-80
2022/04/23 06:34:40;;;;;;;22.30;13.98;;;;;;;13.65;56.32;98676.63;4949316;28;20056;-81
2022/04/23 06:37:09;;;;;;;23.25;13.13;;;;;;;13.66;55.93;98686.28;4985807;28;20052;-81
2022/04/23 06:39:36;;;;;;;19.48;12.00;;;;;;;13.66;55.55;98680.94;4955320;28;20202;-81
2022/04/23 06:42:03;;;;;;;19.52;11.93;;;;;;;13.76;55.40;98680.66;4972703;28;20046;-81
2022/04/23 06:44:36;;;;;;;19.83;11.80;;;;;;;13.83;55.23;98684.25;4959662;28;20051;-81
2022/04/23 06:47:04;;;;;;;18.80;12.00;;;;;;;13.83;55.46;98677.06;4971452;28;20118;-81
2022/04/23 06:49:31;;;;;;;21.38;11.27;;;;;;;13.86;55.05;98687.38;4967144;28;20545;-81
2022/04/23 06:51:57;;;;;;;20.08;11.48;;;;;;;13.95;55.01;98687.28;4956215;28;20157;-81
2022/04/23 06:54:24;;;;;;;19.10;11.30;;;;;;;13.95;54.97;98684.63;4966605;28;20474;-81
2022/04/23 06:56:52;;;;;;;16.00;9.85;;;;;;;13.93;55.63;98682.13;4969509;28;20049;-80
2022/04/23 06:59:18;;;;;;;13.75;9.07;;;;;;;13.80;55.42;98681.97;4997092;28;20042;-80
2022/04/23 07:01:46;;;;;;;15.02;9.57;;;;;;;13.89;55.10;98684.34;4981888;28;20480;-81
2022/04/23 07:04:15;;;;;;;15.18;8.45;;;;;;;13.71;55.47;98688.38;4983122;28;20045;-84
2022/04/23 07:06:42;;;;;;;13.38;8.95;;;;;;;13.76;55.75;98686.81;4986159;28;20061;-80
2022/04/23 07:09:09;;;;;;;14.27;9.40;;;;;;;13.83;55.57;98689.59;4984164;28;20118;-81
2022/04/23 07:11:35;;;;;;;14.57;8.75;;;;;;;13.68;55.47;98685.06;4972649;28;20046;-81
2022/04/23 07:14:02;;;;;;;13.20;8.60;;;;;;;13.70;55.41;98678.75;4991301;28;20046;-81
2022/04/23 07:16:29;;;;;;;13.77;8.52;;;;;;;13.75;55.37;98674.50;4969839;28;20058;-81
2022/04/23 07:18:56;;;;;;;15.43;8.10;;;;;;;13.80;55.36;98682.78;4953950;28;20038;-81
2022/04/23 07:21:23;;;;;;;11.60;8.30;;;;;;;13.87;55.34;98682.88;4988465;28;20050;-82
2022/04/23 07:24:10;;;;;;;13.57;8.65;;;;;;;13.82;55.37;98680.78;4968832;28;20066;-82
2022/04/23 07:26:38;;;;;;;13.32;8.73;;;;;;;13.79;55.37;98685.63;4970124;28;20489;-83
2022/04/23 07:29:07;;;;;;;11.20;7.68;;;;;;;13.83;55.32;98679.75;4950658;28;20402;-82
2022/04/23 07:31:35;;;;;;;14.15;8.70;;;;;;;13.82;55.43;98677.28;4983077;28;20497;-82
2022/04/23 07:39:33;;;;;;;12.93;8.07;;;;;;;13.87;55.02;98682.88;4950250;28;20092;-84
2022/04/23 07:42:00;;;;;;;11.82;7.68;;;;;;;13.88;54.72;98682.69;5001052;28;20054;-84
2022/04/23 07:44:27;;;;;;;11.27;7.43;;;;;;;13.85;54.98;98685.72;4980987;28;20042;-85
2022/04/23 07:46:54;;;;;;;13.40;8.52;;;;;;;13.89;54.96;98678.16;4967432;28;20113;-85
2022/04/23 07:49:21;;;;;;;11.43;7.82;;;;;;;13.88;55.40;98679.19;4985513;28;20046;-84
2022/04/23 07:51:47;;;;;;;11.40;7.82;;;;;;;13.91;55.46;98686.81;4985436;28;20441;-85
2022/04/23 07:54:15;;;;;;;12.02;7.38;;;;;;;13.95;55.16;98684.63;4980656;28;20034;-85
2022/04/23 07:56:42;;;;;;;10.82;6.32;;;;;;;13.97;54.63;98679.91;4969429;28;20054;-85
2022/04/23 07:59:09;;;;;;;9.73;6.43;;;;;;;13.96;54.91;98681.75;4952359;28;20125;-84
2022/04/23 08:01:37;;;;;;;10.93;6.68;;;;;;;13.95;54.72;98689.97;4988251;28;20393;-85
2022/04/23 08:04:04;;;;;;;8.77;5.38;;;;;;;13.89;54.86;98684.34;4976466;28;20060;-84
2022/04/23 08:06:31;;;;;;;8.85;6.10;;;;;;;13.91;54.94;98686.81;4990249;28;20046;-84
2022/04/23 08:08:58;;;;;;;9.65;6.20;;;;;;;13.63;55.45;98690.13;4988691;28;20114;-84
2022/04/23 08:11:25;;;;;;;8.02;5.60;;;;;;;13.76;54.96;98680.66;4984424;28;20118;-84
2022/04/23 08:13:52;;;;;;;8.52;5.57;;;;;;;13.78;55.35;98682.13;4973097;28;20104;-84
2022/04/23 08:16:19;;;;;;;9.73;6.00;;;;;;;13.44;55.34;98691.50;4972265;28;20049;-83
2022/04/23 08:18:46;;;;;;;10.30;5.95;;;;;;;13.74;54.95;98688.03;4958460;28;20056;-84
2022/04/23 08:21:13;;;;;;;7.78;5.75;;;;;;;13.72;55.00;98671.41;4987346;28;20112;-84
2022/04/23 08:23:40;;;;;;;8.07;5.20;;;;;;;13.76;54.72;98678.81;4990107;28;20100;-84
2022/04/23 08:26:06;;;;;;;7.35;4.85;;;;;;;13.75;54.60;98679.03;4974116;28;20402;-83
2022/04/23 08:31:18;;;;;;;9.48;6.07;;;;;;;13.73;55.00;98684.53;4956445;28;20046;-83
2022/04/23 08:34:00;;;;;;;9.25;5.60;;;;;;;13.80;54.79;98681.97;4957691;28;20092;-83
2022/04/23 08:36:36;;;;;;;7.53;5.65;;;;;;;13.83;54.86;98685.06;4972553;28;20058;-84
2022/04/23 08:39:04;;;;;;;7.85;5.03;;;;;;;13.93;54.58;98681.31;4987123;28;20125;-83
2022/04/23 08:41:32;;;;;;;8.38;4.97;;;;;;;14.01;54.28;98683.88;4987094;28;20571;-84
2022/04/23 08:44:06;;;;;;;7.60;4.88;;;;;;;14.06;54.33;98687.63;5001039;28;20049;-84
2022/04/23 08:46:38;;;;;;;6.90;5.18;;;;;;;14.08;54.03;98674.13;4982215;28;20058;-83
2022/04/23 08:49:34;;;;;;;7.35;5.55;;;;;;;13.97;54.38;98677.25;4972125;28;20477;-84
2022/04/23 08:52:18;;;;;;;5.53;4.65;;;;;;;14.03;54.83;98682.66;4969181;28;20077;-85
2022/04/23 08:54:44;;;;;;;6.25;5.07;;;;;;;14.16;54.21;98689.19;4990919;28;20046;-87
2022/04/23 08:57:11;;;;;;;6.97;5.13;;;;;;;14.14;54.22;98692.03;4974604;28;20109;-86
2022/04/23 08:59:39;;;;;;;10.57;6.07;;;;;;;14.14;54.37;98697.38;4969203;28;20081;-86
2022/04/23 09:02:13;;;;;;;6.95;5.60;;;;;;;14.07;54.10;98688.47;4988277;28;20563;-86
2022/04/23 09:04:42;;;;;;;9.10;6.40;;;;;;;13.96;53.94;98695.09;4943548;28;21854;-86
2022/04/23 09:07:26;;;;;;;10.52;6.40;;;;;;;13.84;54.52;98693.91;4966309;28;20202;-86
2022/04/23 09:09:55;;;;;;;10.68;6.25;;;;;;;14.04;54.41;98687.00;4959791;28;20074;-85
2022/04/23 09:12:24;;;;;;;10.43;6.57;;;;;;;14.02;54.10;98693.56;4949334;28;20490;-84
2022/04/23 09:14:53;;;;;;;10.77;7.35;;;;;;;13.89;54.61;98691.50;4969445;28;20494;-85
2022/04/23 09:25:51;;;;;;;8.75;5.53;;;;;;;13.90;54.77;98683.34;4977716;28;20064;-86
2022/04/23 09:28:19;;;;;;;8.05;5.95;;;;;;;13.86;54.76;98684.69;4970368;28;20107;-85
2022/04/23 09:30:51;;;;;;;11.20;5.82;;;;;;;13.88;54.25;98690.69;4968624;28;20133;-85
2022/04/23 09:33:21;;;;;;;9.43;6.13;;;;;;;13.70;54.81;98702.75;4983213;28;20042;-85
2022/04/23 09:35:52;;;;;;;12.00;6.07;;;;;;;13.86;55.05;98691.88;4973060;28;20057;-86
2022/04/23 09:38:19;;;;;;;9.85;6.43;;;;;;;13.90;55.08;98685.19;4998064;28;20475;-86
2022/04/23 09:40:56;;;;;;;9.75;6.53;;;;;;;13.85;54.77;98691.06;4969374;28;20065;-85
2022/04/23 09:43:32;;;;;;;9.50;5.90;;;;;;;14.02;54.66;98693.56;4968523;28;20133;-86
2022/04/23 09:46:10;;;;;;;11.70;6.15;;;;;;;13.93;54.70;98697.31;4998156;28;20047;-86
2022/04/23 09:48:43;;;;;;;11.32;6.55;;;;;;;13.97;54.38;98686.09;4982656;28;20116;-85
2022/04/23 09:51:26;;;;;;;10.57;5.88;;;;;;;13.90;54.57;98687.84;4987594;28;20053;-85
2022/04/23 09:53:54;;;;;;;8.65;5.78;;;;;;;13.98;54.18;98687.75;4976677;28;20410;-86
2022/04/23 09:56:23;;;;;;;10.23;6.80;;;;;;;14.02;54.66;98693.56;4963913;28;20039;-86
2022/04/23 09:58:53;;;;;;;8.65;6.18;;;;;;;14.03;54.80;98685.34;4967162;28;20066;-85
2022/04/23 10:01:21;;;;;;;8.63;6.13;;;;;;;14.10;54.45;98680.09;4950929;28;20039;-86
2022/04/23 10:03:50;;;;;;;11.35;6.82;;;;;;;14.18;54.33;98685.31;4962603;28;20149;-86
2022/04/23 10:06:18;;;;;;;11.35;7.43;;;;;;;14.08;54.30;98692.78;4958091;28;20047;-86
2022/04/23 10:08:48;;;;;;;12.10;7.13;;;;;;;14.03;53.96;98692.53;4950993;28;20035;-86
2022/04/23 10:11:30;;;;;;;12.77;7.10;;;;;;;13.98;54.00;98693.06;4985976;28;20050;-86
2022/04/23 10:14:04;;;;;;;12.95;7.22;;;;;;;13.89;54.33;98688.84;4968565;28;20061;-86
2022/04/23 10:16:32;;;;;;;13.75;7.57;;;;;;;13.96;53.68;98688.94;4985742;28;20050;-86
2022/04/23 10:19:00;;;;;;;10.57;7.22;;;;;;;14.02;53.62;98675.69;4971330;28;20060;-86
2022/04/23 10:21:30;;;;;;;14.55;7.25;;;;;;;14.05;54.34;98685.16;4967888;28;20042;-86
2022/04/23 10:24:06;;;;;;;9.13;6.43;;;;;;;14.06;54.21;98679.63;4998874;28;20517;-86
2022/04/23 10:26:49;;;;;;;12.23;7.00;;;;;;;14.08;54.27;98677.59;4967548;28;20050;-86
2022/04/23 10:29:20;;;;;;;14.85;6.90;;;;;;;14.22;54.29;98675.94;4980993;28;20545;-86
2022/04/23 10:32:16;;;;;;;11.30;6.72;;;;;;;14.22;54.39;98677.75;4996878;28;20050;-85
2022/04/23 10:34:43;;;;;;;13.50;7.78;;;;;;;14.36;53.76;98682.25;4968858;28;20046;-83
2022/04/23 10:37:17;;;;;;;9.90;7.05;;;;;;;14.40;53.50;98688.88;4963230;28;20062;-85
2022/04/23 10:39:53;;;;;;;15.07;8.55;;;;;;;14.35;53.19;98675.25;4985434;28;20045;-83
2022/04/23 10:42:23;;;;;;;11.68;7.65;;;;;;;14.40;53.24;98669.31;4989816;28;20062;-86
2022/04/23 10:44:54;;;;;;;12.02;8.05;;;;;;;14.37;53.18;98678.53;4990647;28;20042;-86
2022/04/23 10:47:38;;;;;;;12.90;7.82;;;;;;;14.23;53.22;98666.06;4987984;28;20077;-86
2022/04/23 10:50:15;;;;;;;13.85;7.20;;;;;;;14.33;53.58;98669.28;4955312;28;20045;-82
2022/04/23 10:52:43;;;;;;;15.55;8.60;;;;;;;14.47;53.46;98657.69;5003209;28;20390;-82
2022/04/23 10:55:13;;;;;;;14.23;7.90;;;;;;;14.49;53.75;98654.84;4984390;28;20057;-81
2022/04/23 10:57:47;;;;;;;9.43;6.95;;;;;;;14.44;53.01;98666.09;4968490;28;20050;-82
2022/04/23 11:00:16;;;;;;;13.25;9.25;;;;;;;14.40;52.88;98672.84;4977210;28;20089;-85
2022/04/23 11:03:07;;;;;;;11.55;7.55;;;;;;;14.36;52.89;98668.88;4965698;28;20050;-86
2022/04/23 11:14:39;;;;;;;11.90;7.97;;;;;;;14.43;53.28;98647.59;4983932;28;20052;-84
2022/04/23 11:17:07;;;;;;;14.30;8.10;;;;;;;14.58;53.27;98647.56;4941399;28;20081;-83
2022/04/23 11:19:34;;;;;;;14.98;8.40;;;;;;;14.56;53.03;98642.44;4969204;28;20042;-84
2022/04/23 11:22:04;;;;;;;15.40;10.02;;;;;;;14.53;52.20;98653.50;4989266;28;20043;-83
2022/04/23 11:24:32;;;;;;;15.48;8.82;;;;;;;14.55;52.56;98643.41;4985750;28;20066;-83
2022/04/23 11:27:00;;;;;;;15.93;10.68;;;;;;;14.51;52.30;98648.31;4967542;28;20046;-83
2022/04/23 11:29:28;;;;;;;14.98;9.48;;;;;;;14.47;52.29;98644.34;4982504;28;20070;-83
2022/04/23 11:32:48;;;;;;;14.13;8.97;;;;;;;14.40;52.85;98650.63;4973781;28;20057;-83
2022/04/23 11:35:16;;;;;;;15.27;9.15;;;;;;;14.57;52.25;98643.25;4958443;28;20047;-82
2022/04/23 11:37:43;;;;;;;22.67;10.00;;;;;;;14.60;52.72;98637.50;4966753;28;20050;-83
2022/04/23 11:40:11;;;;;;;16.73;9.23;;;;;;;14.61;52.64;98640.00;4978690;28;20486;-84
2022/04/23 11:42:43;;;;;;;19.33;9.50;;;;;;;14.63;52.78;98637.97;4955393;28;20046;-85
2022/04/23 11:45:18;;;;;;;18.02;9.95;;;;;;;14.66;52.48;98632.25;4983703;28;20050;-84
2022/04/23 11:47:45;;;;;;;19.15;9.80;;;;;;;14.75;52.70;98635.59;4945102;28;20046;-84
2022/04/23 11:50:16;;;;;;;15.52;9.07;;;;;;;14.81;52.14;98621.50;4990001;28;20121;-83
2022/04/23 11:52:57;;;;;;;16.92;9.73;;;;;;;14.74;52.49;98624.09;4984643;28;20084;-82
2022/04/23 11:55:26;;;;;;;15.27;9.07;;;;;;;14.86;52.89;98623.59;4981068;28;20043;-82
2022/04/23 11:57:55;;;;;;;15.90;9.63;;;;;;;14.89;52.82;98640.06;4967884;28;20398;-84
2022/04/23 12:00:24;;;;;;;17.95;9.82;;;;;;;14.93;52.14;98627.97;4954915;28;20046;-81
2022/04/23 12:02:52;;;;;;;17.63;9.10;;;;;;;14.98;52.36;98627.38;4983138;28;20043;-85
2022/04/23 12:05:32;;;;;;;18.20;9.52;;;;;;;14.87;52.09;98636.75;4987113;28;20124;-83